createdAt,value
2022-08-17T00:00:43.262Z,46.81
2022-08-17T00:03:22.718Z,47.09
2022-08-17T00:05:57.240Z,47.22
2022-08-17T00:08:31.707Z,47.26
2022-08-17T00:11:04.255Z,47.34
2022-08-17T00:13:38.800Z,47.35
2022-08-17T00:16:13.026Z,47.57
2022-08-17T00:19:02.080Z,47.58
2022-08-17T00:22:33.039Z,47.70
2022-08-17T00:24:33.746Z,47.96
2022-08-17T00:27:05.834Z,47.87
2022-08-17T00:29:38.369Z,47.90
2022-08-17T00:33:11.613Z,47.93
2022-08-17T00:35:02.960Z,47.95
2022-08-17T00:37:35.780Z,47.98
2022-08-17T00:40:08.686Z,48.13
2022-08-17T00:42:41.778Z,48.09
2022-08-17T00:45:16.430Z,48.12
2022-08-17T00:47:48.810Z,48.19
2022-08-17T00:50:19.905Z,48.15
2022-08-17T00:52:57.825Z,48.45
2022-08-17T00:55:29.690Z,48.36
2022-08-17T00:58:01.794Z,48.38
2022-08-17T01:06:50.634Z,48.54
2022-08-17T01:09:21.367Z,48.57
2022-08-17T01:11:52.193Z,48.45
2022-08-17T01:14:23.108Z,48.73
2022-08-17T01:16:55.538Z,48.88
2022-08-17T01:19:28.679Z,48.81
2022-08-17T01:22:04.834Z,49.04
2022-08-17T01:24:35.356Z,49.00
2022-08-17T01:27:10.183Z,49.26
2022-08-17T01:29:42.576Z,49.18
2022-08-17T01:32:13.201Z,49.25
2022-08-17T01:34:50.176Z,49.36
2022-08-17T01:37:22.700Z,49.26
2022-08-17T01:39:55.721Z,49.21
2022-08-17T01:42:32.449Z,49.22
2022-08-17T01:45:06.478Z,49.28
2022-08-17T01:47:37.432Z,49.05
2022-08-17T01:50:11.215Z,49.02
2022-08-17T01:52:42.344Z,49.06
2022-08-17T01:55:15.353Z,49.17
2022-08-17T01:57:46.357Z,49.01
2022-08-17T02:00:18.383Z,49.11
2022-08-17T02:02:48.877Z,48.79
2022-08-17T02:05:19.586Z,48.76
2022-08-17T02:07:59.945Z,48.83
2022-08-17T02:10:34.191Z,48.72
2022-08-17T02:13:05.085Z,48.82
2022-08-17T02:15:35.631Z,48.93
2022-08-17T02:18:07.003Z,48.93
2022-08-17T02:20:41.711Z,48.82
2022-08-17T02:23:14.294Z,48.89
2022-08-17T02:25:47.632Z,49.13
2022-08-17T02:28:18.407Z,49.13
2022-08-17T02:31:01.909Z,49.40
2022-08-17T02:33:41.652Z,49.62
2022-08-17T02:36:13.831Z,49.81
2022-08-17T02:38:44.818Z,49.93
2022-08-17T02:41:15.235Z,50.18
2022-08-17T02:43:45.607Z,50.11
2022-08-17T02:46:15.935Z,50.28
2022-08-17T02:48:46.326Z,50.34
2022-08-17T02:51:17.513Z,50.35
2022-08-17T02:53:48.181Z,50.37
2022-08-17T02:56:18.673Z,50.45
2022-08-17T02:58:49.161Z,50.43
2022-08-17T03:01:20.290Z,50.44
2022-08-17T03:03:50.660Z,50.43
2022-08-17T03:06:21.021Z,50.45
2022-08-17T03:08:52.285Z,50.45
2022-08-17T03:11:23.541Z,50.34
2022-08-17T03:13:53.913Z,50.29
2022-08-17T03:16:24.282Z,50.24
2022-08-17T03:18:55.125Z,50.38
2022-08-17T03:21:25.460Z,50.35
2022-08-17T03:23:55.780Z,50.38
2022-08-17T03:26:29.838Z,50.47
2022-08-17T03:29:00.549Z,50.49
2022-08-17T03:31:31.427Z,50.54
2022-08-17T03:34:01.968Z,50.62
2022-08-17T03:36:32.359Z,50.60
2022-08-17T03:39:07.059Z,50.80
2022-08-17T03:41:37.832Z,50.76
2022-08-17T03:44:08.123Z,50.81
2022-08-17T03:46:56.104Z,50.79
2022-08-17T03:49:44.277Z,51.00
2022-08-17T03:52:32.214Z,50.95
2022-08-17T03:55:20.265Z,51.20
2022-08-17T03:58:06.138Z,51.00
2022-08-17T04:00:39.670Z,51.00
2022-08-17T04:03:10.258Z,50.88
2022-08-17T04:05:41.268Z,51.04
2022-08-17T04:08:12.172Z,50.98
2022-08-17T04:10:45.238Z,50.93
2022-08-17T04:13:15.834Z,50.63
2022-08-17T04:15:56.126Z,50.64
2022-08-17T04:18:26.923Z,50.54
2022-08-17T04:20:57.208Z,50.51
2022-08-17T04:23:33.604Z,50.38
2022-08-17T04:26:04.751Z,50.26
2022-08-17T04:28:35.164Z,50.32
2022-08-17T04:31:05.580Z,50.12
2022-08-17T04:33:38.761Z,50.18
2022-08-17T04:36:10.599Z,49.96
2022-08-17T04:38:42.736Z,49.94
2022-08-17T04:41:31.321Z,49.87
2022-08-17T04:44:04.479Z,49.65
2022-08-17T04:46:37.236Z,49.55
2022-08-17T04:49:09.839Z,49.31
2022-08-17T04:51:40.071Z,49.15
2022-08-17T04:54:20.204Z,48.96
2022-08-17T04:56:51.693Z,48.83
2022-08-17T04:59:25.806Z,48.71
2022-08-17T05:01:56.996Z,48.31
2022-08-17T05:04:35.191Z,48.16
2022-08-17T05:07:06.626Z,47.86
2022-08-17T05:09:37.644Z,48.08
2022-08-17T05:12:10.479Z,47.68
2022-08-17T05:14:43.213Z,47.50
2022-08-17T05:17:12.656Z,47.55
2022-08-17T05:19:43.186Z,47.03
2022-08-17T05:22:13.684Z,46.91
2022-08-17T05:24:53.394Z,46.58
2022-08-17T05:27:25.032Z,46.19
2022-08-17T05:30:02.700Z,44.65
2022-08-17T05:32:38.982Z,43.34
2022-08-17T05:35:11.800Z,42.18
2022-08-17T05:37:42.428Z,41.09
2022-08-17T05:40:14.375Z,39.72
2022-08-17T05:42:45.478Z,39.19
2022-08-17T05:45:39.886Z,38.85
2022-08-17T05:48:07.353Z,39.48
2022-08-17T05:50:47.321Z,39.60
2022-08-17T05:53:25.735Z,40.30
2022-08-17T05:56:06.400Z,40.47
2022-08-17T05:59:05.399Z,40.66
2022-08-17T06:01:40.093Z,40.62
2022-08-17T06:04:21.226Z,40.95
2022-08-17T06:06:56.325Z,41.42
2022-08-17T06:09:39.859Z,41.33
2022-08-17T06:12:23.263Z,41.54
2022-08-17T06:15:03.345Z,41.96
2022-08-17T06:17:34.252Z,42.32
2022-08-17T06:20:09.636Z,43.02
2022-08-17T06:22:47.382Z,43.18
2022-08-17T06:25:31.335Z,43.27
2022-08-17T06:28:06.020Z,43.62
2022-08-17T06:30:59.428Z,43.63
2022-08-17T06:33:36.013Z,43.64
2022-08-17T06:36:16.024Z,43.37
2022-08-17T06:38:56.687Z,43.11
2022-08-17T06:41:35.716Z,43.34
2022-08-17T06:44:43.144Z,43.09
2022-08-17T06:47:28.418Z,43.17
2022-08-17T06:50:10.224Z,42.53
2022-08-17T06:52:51.811Z,41.52
2022-08-17T06:55:26.356Z,40.92
2022-08-17T06:58:02.065Z,40.02
2022-08-17T07:00:47.276Z,39.98
2022-08-17T07:03:26.714Z,40.22
2022-08-17T07:06:00.724Z,40.60
2022-08-17T07:08:35.589Z,41.49
2022-08-17T07:11:10.010Z,42.27
2022-08-17T07:13:51.764Z,42.78
2022-08-17T07:16:27.888Z,43.20
2022-08-17T07:18:59.511Z,43.62
2022-08-17T07:21:40.836Z,43.90
2022-08-17T07:24:29.412Z,44.34
2022-08-17T07:27:25.168Z,44.66
2022-08-17T07:29:58.796Z,44.43
2022-08-17T07:32:32.810Z,44.16
2022-08-17T07:35:16.701Z,44.57
2022-08-17T07:37:53.101Z,44.58
2022-08-17T07:40:33.435Z,44.58
2022-08-17T07:43:18.805Z,44.26
2022-08-17T07:46:15.792Z,44.64
2022-08-17T07:48:49.605Z,44.61
2022-08-17T07:51:29.620Z,44.84
2022-08-17T07:54:14.020Z,44.77
2022-08-17T07:56:48.399Z,44.68
2022-08-17T07:59:23.336Z,45.02
2022-08-17T08:02:08.046Z,45.33
2022-08-17T08:04:59.695Z,45.51
2022-08-17T08:07:37.043Z,45.44
2022-08-17T08:10:12.763Z,45.65
2022-08-17T08:12:45.566Z,46.28
2022-08-17T08:15:19.483Z,46.58
2022-08-17T08:17:53.241Z,46.74
2022-08-17T08:20:53.045Z,47.31
2022-08-17T08:23:25.549Z,47.42
2022-08-17T08:26:03.520Z,47.72
2022-08-17T08:28:37.878Z,48.42
2022-08-17T08:31:16.318Z,48.86
2022-08-17T08:33:56.277Z,49.36
2022-08-17T08:37:15.959Z,49.48
2022-08-17T08:39:34.577Z,50.07
2022-08-17T08:42:09.029Z,50.23
2022-08-17T08:45:00.350Z,50.22
2022-08-17T08:47:58.134Z,50.31
2022-08-17T08:50:42.780Z,52.15
2022-08-17T08:53:21.282Z,52.41
2022-08-17T08:55:56.091Z,51.38
2022-08-17T08:58:41.715Z,51.68
2022-08-17T09:01:18.750Z,51.70
2022-08-17T09:04:21.415Z,51.38
2022-08-17T09:07:01.824Z,51.04
2022-08-17T09:09:41.224Z,50.26
2022-08-17T09:12:17.798Z,49.64
2022-08-17T09:14:59.473Z,50.17
2022-08-17T09:17:38.196Z,50.50
2022-08-17T09:20:28.088Z,50.87
2022-08-17T09:23:02.688Z,51.97
2022-08-17T09:25:36.413Z,52.92
2022-08-17T09:28:09.350Z,53.47
2022-08-17T09:30:45.486Z,53.83
2022-08-17T09:33:19.408Z,54.57
2022-08-17T09:35:55.176Z,54.48
2022-08-17T09:38:32.515Z,53.88
2022-08-17T09:41:09.947Z,54.12
2022-08-17T09:43:44.630Z,54.25
2022-08-17T09:46:20.516Z,52.88
2022-08-17T09:48:56.143Z,52.58
2022-08-17T09:51:32.387Z,52.09
2022-08-17T09:54:37.091Z,51.57
2022-08-17T09:57:27.918Z,50.80
2022-08-17T10:00:10.060Z,49.00
2022-08-17T10:03:17.933Z,47.78
2022-08-17T10:05:56.706Z,47.00
2022-08-17T10:08:35.115Z,46.19
2022-08-17T10:11:11.874Z,45.55
2022-08-17T10:13:52.770Z,44.70
2022-08-17T10:16:30.034Z,44.12
2022-08-17T10:19:10.422Z,43.70
2022-08-17T10:22:00.971Z,42.63
2022-08-17T10:25:21.701Z,42.19
2022-08-17T10:27:48.658Z,41.50
2022-08-17T10:30:21.801Z,41.39
2022-08-17T10:32:55.287Z,41.16
2022-08-17T10:35:40.399Z,41.39
2022-08-17T10:38:34.127Z,41.36
2022-08-17T10:41:15.440Z,41.69
2022-08-17T10:44:28.364Z,41.92
2022-08-17T10:46:52.351Z,42.51
2022-08-17T10:49:33.030Z,42.75
2022-08-17T10:52:05.427Z,41.90
2022-08-17T10:54:39.607Z,42.00
2022-08-17T10:57:37.095Z,42.43
2022-08-17T11:00:15.901Z,42.54
2022-08-17T11:02:50.832Z,42.66
2022-08-17T11:05:44.597Z,42.79
2022-08-17T11:08:48.400Z,42.47
2022-08-17T11:11:38.433Z,42.64
2022-08-17T11:14:20.475Z,42.94
2022-08-17T11:17:02.700Z,43.37
2022-08-17T11:19:49.830Z,43.56
2022-08-17T11:22:47.739Z,44.03
2022-08-17T11:25:20.255Z,44.21
2022-08-17T11:27:54.389Z,44.23
2022-08-17T11:30:50.866Z,44.27
2022-08-17T11:33:58.804Z,44.73
2022-08-17T11:37:01.743Z,43.71
2022-08-17T11:39:51.956Z,41.71
2022-08-17T11:42:31.968Z,38.78
2022-08-17T11:45:09.411Z,38.15
2022-08-17T11:48:26.627Z,37.86
2022-08-17T11:51:16.100Z,36.67
2022-08-17T11:54:31.742Z,35.47
2022-08-17T11:56:58.902Z,33.66
2022-08-17T12:00:01.889Z,32.20
2022-08-17T12:02:48.212Z,30.79
2022-08-17T12:05:39.954Z,30.73
2022-08-17T12:08:18.423Z,30.62
2022-08-17T12:10:57.798Z,29.63
2022-08-17T12:13:32.790Z,29.47
2022-08-17T12:16:10.607Z,28.28
2022-08-17T12:18:42.835Z,27.62
2022-08-17T12:21:40.608Z,27.08
2022-08-17T12:24:20.339Z,26.56
2022-08-17T12:26:58.256Z,25.23
2022-08-17T12:29:35.938Z,25.82
2022-08-17T12:32:18.514Z,26.76
2022-08-17T12:34:51.737Z,26.19
2022-08-17T12:37:26.588Z,25.13
2022-08-17T12:40:02.601Z,23.83
2022-08-17T12:42:37.617Z,23.16
2022-08-17T12:45:23.509Z,23.72
2022-08-17T12:48:06.530Z,23.42
2022-08-17T12:50:40.223Z,23.14
2022-08-17T12:53:15.755Z,22.81
2022-08-17T12:55:47.640Z,23.85
2022-08-17T12:58:22.367Z,24.23
2022-08-17T13:06:32.054Z,24.18
2022-08-17T13:09:12.718Z,24.16
2022-08-17T13:11:50.625Z,23.21
2022-08-17T13:14:21.653Z,22.78
2022-08-17T13:16:56.175Z,22.20
2022-08-17T13:19:39.734Z,21.94
2022-08-17T13:22:13.323Z,21.85
2022-08-17T13:24:54.095Z,21.77
2022-08-17T13:27:25.981Z,21.68
2022-08-17T13:29:59.457Z,21.38
2022-08-17T13:32:43.687Z,21.53
2022-08-17T13:35:39.892Z,21.41
2022-08-17T13:38:13.969Z,21.00
2022-08-17T13:40:50.883Z,20.90
2022-08-17T13:43:49.489Z,22.29
2022-08-17T13:46:24.814Z,23.66
2022-08-17T13:49:04.032Z,24.54
2022-08-17T13:51:36.827Z,24.45
2022-08-17T13:54:21.894Z,23.71
2022-08-17T13:57:00.395Z,22.66
2022-08-17T13:59:53.856Z,22.10
2022-08-17T14:02:28.825Z,22.68
2022-08-17T14:05:01.971Z,23.64
2022-08-17T14:07:39.539Z,24.42
2022-08-17T14:10:14.229Z,25.00
2022-08-17T14:12:45.799Z,25.45
2022-08-17T14:15:24.418Z,26.39
2022-08-17T14:18:17.669Z,26.64
2022-08-17T14:20:48.050Z,26.33
2022-08-17T14:23:18.974Z,25.12
2022-08-17T14:25:49.376Z,25.05
2022-08-17T14:28:19.730Z,23.78
2022-08-17T14:30:50.338Z,22.98
2022-08-17T14:33:22.528Z,21.66
2022-08-17T14:35:53.598Z,20.72
2022-08-17T14:38:24.246Z,19.75
2022-08-17T14:40:54.585Z,19.22
2022-08-17T14:43:24.929Z,18.80
2022-08-17T14:45:55.312Z,18.75
2022-08-17T14:48:25.689Z,18.24
2022-08-17T14:50:56.645Z,18.99
2022-08-17T14:53:27.015Z,19.40
2022-08-17T14:55:57.619Z,19.71
2022-08-17T14:58:29.514Z,19.92
2022-08-17T15:01:00.063Z,20.38
2022-08-17T15:03:30.452Z,20.46
2022-08-17T15:06:00.790Z,21.45
2022-08-17T15:08:31.705Z,22.75
2022-08-17T15:11:03.654Z,23.75
2022-08-17T15:13:34.191Z,24.91
2022-08-17T15:16:05.395Z,25.53
2022-08-17T15:18:36.090Z,26.43
2022-08-17T15:21:07.157Z,27.23
2022-08-17T15:23:38.527Z,28.21
2022-08-17T15:26:09.209Z,28.55
2022-08-17T15:28:39.538Z,29.14
2022-08-17T15:31:09.916Z,29.68
2022-08-17T15:33:40.939Z,29.77
2022-08-17T15:36:12.205Z,29.76
2022-08-17T15:38:44.522Z,29.94
2022-08-17T15:41:18.171Z,30.23
2022-08-17T15:43:49.933Z,30.53
2022-08-17T15:46:22.513Z,30.81
2022-08-17T15:48:58.082Z,30.94
2022-08-17T15:51:30.230Z,31.18
2022-08-17T15:54:04.275Z,31.38
2022-08-17T15:56:49.893Z,31.61
2022-08-17T15:59:20.324Z,31.97
2022-08-17T16:03:13.144Z,32.18
2022-08-17T16:04:43.993Z,31.85
2022-08-17T16:07:16.240Z,31.31
2022-08-17T16:09:46.869Z,30.94
2022-08-17T16:12:19.694Z,30.65
2022-08-17T16:14:53.486Z,30.48
2022-08-17T16:17:39.259Z,30.23
2022-08-17T16:20:20.421Z,30.04
2022-08-17T16:22:52.564Z,29.52
2022-08-17T16:25:47.104Z,29.16
2022-08-17T16:28:35.706Z,28.94
2022-08-17T16:31:08.103Z,28.73
2022-08-17T16:33:39.707Z,28.23
2022-08-17T16:36:10.770Z,27.71
2022-08-17T16:38:41.114Z,27.92
2022-08-17T16:41:12.698Z,28.12
2022-08-17T16:43:41.637Z,28.46
2022-08-17T16:46:11.994Z,28.48
2022-08-17T16:48:44.518Z,28.35
2022-08-17T16:51:14.873Z,28.31
2022-08-17T16:53:45.238Z,28.36
2022-08-17T16:56:25.301Z,28.37
2022-08-17T16:58:57.136Z,28.88
2022-08-17T17:01:41.735Z,29.14
2022-08-17T17:04:15.212Z,29.30
2022-08-17T17:06:54.624Z,29.50
2022-08-17T17:09:29.252Z,29.20
2022-08-17T17:12:01.017Z,29.40
2022-08-17T17:14:33.282Z,29.59
2022-08-17T17:17:06.471Z,29.89
2022-08-17T17:19:41.422Z,29.90
2022-08-17T17:22:17.233Z,30.07
2022-08-17T17:24:57.317Z,30.11
2022-08-17T17:27:33.213Z,30.42
2022-08-17T17:30:09.920Z,30.65
2022-08-17T17:32:45.915Z,30.75
2022-08-17T17:35:20.732Z,30.85
2022-08-17T17:37:52.579Z,31.05
2022-08-17T17:40:23.033Z,31.39
2022-08-17T17:42:56.017Z,31.41
2022-08-17T17:45:31.279Z,31.67
2022-08-17T17:48:01.682Z,31.78
2022-08-17T17:50:45.683Z,32.02
2022-08-17T17:53:26.115Z,32.25
2022-08-17T17:56:18.744Z,32.58
2022-08-17T17:59:05.644Z,32.82
2022-08-17T18:01:48.883Z,33.15
2022-08-17T18:04:24.907Z,33.49
2022-08-17T18:07:10.130Z,33.82
2022-08-17T18:10:02.642Z,34.28
2022-08-17T18:12:37.377Z,34.59
2022-08-17T18:15:31.698Z,34.83
2022-08-17T18:18:28.720Z,35.20
2022-08-17T18:21:06.385Z,35.52
2022-08-17T18:23:36.908Z,35.90
2022-08-17T18:26:08.628Z,36.32
2022-08-17T18:28:44.157Z,36.60
2022-08-17T18:31:20.042Z,36.98
2022-08-17T18:33:52.401Z,37.37
2022-08-17T18:36:28.580Z,37.80
2022-08-17T18:39:12.883Z,38.13
2022-08-17T18:41:45.319Z,38.58
2022-08-17T18:44:29.052Z,38.99
2022-08-17T18:47:18.443Z,39.48
2022-08-17T18:49:53.577Z,39.98
2022-08-17T18:52:28.958Z,40.33
2022-08-17T18:55:09.832Z,40.81
2022-08-17T18:57:42.965Z,41.19
2022-08-17T19:00:21.244Z,41.48
2022-08-17T19:02:54.624Z,41.79
2022-08-17T19:05:36.214Z,42.25
2022-08-17T19:08:22.497Z,42.41
2022-08-17T19:10:54.365Z,42.80
2022-08-17T19:13:29.813Z,43.12
2022-08-17T19:16:07.758Z,43.18
2022-08-17T19:18:48.862Z,43.61
2022-08-17T19:21:24.597Z,43.85
2022-08-17T19:23:58.954Z,44.14
2022-08-17T19:26:50.692Z,44.17
2022-08-17T19:29:22.383Z,44.46
2022-08-17T19:40:00.834Z,45.01
2022-08-17T19:42:40.710Z,45.29
2022-08-17T19:45:17.359Z,45.37
2022-08-17T19:47:56.044Z,45.68
2022-08-17T19:50:38.437Z,45.78
2022-08-17T19:53:14.944Z,45.98
2022-08-17T19:55:52.345Z,46.17
2022-08-17T19:58:34.730Z,46.39
2022-08-17T20:01:08.071Z,46.72
2022-08-17T20:03:57.849Z,46.81
2022-08-17T20:06:31.765Z,47.07
2022-08-17T20:09:15.266Z,47.00
2022-08-17T20:11:49.771Z,47.41
2022-08-17T20:14:23.672Z,47.51
2022-08-17T20:16:58.207Z,47.67
2022-08-17T20:19:36.997Z,47.53
2022-08-17T20:22:13.261Z,47.75
2022-08-17T20:24:47.945Z,47.52
2022-08-17T20:27:20.364Z,47.60
2022-08-17T20:36:36.985Z,47.19
2022-08-17T20:39:07.650Z,47.21
2022-08-17T20:42:05.872Z,46.90
2022-08-17T20:44:38.389Z,46.81
2022-08-17T20:47:12.637Z,46.68
2022-08-17T20:49:50.708Z,46.41
2022-08-17T20:52:50.733Z,46.40
2022-08-17T20:55:54.768Z,46.30
2022-08-17T20:58:47.197Z,46.09
2022-08-17T21:01:25.266Z,45.84
2022-08-17T21:09:53.505Z,45.81
2022-08-17T21:12:41.450Z,45.69
2022-08-17T21:15:24.109Z,45.68
2022-08-17T21:17:59.142Z,45.79
2022-08-17T21:20:34.125Z,45.67
2022-08-17T21:23:23.900Z,45.58
2022-08-17T21:26:09.496Z,45.61
2022-08-17T21:29:00.805Z,45.90
2022-08-17T21:31:36.247Z,45.87
2022-08-17T21:34:34.008Z,46.22
2022-08-17T21:37:34.865Z,46.42
2022-08-17T21:40:23.359Z,46.53
2022-08-17T21:43:01.049Z,46.76
2022-08-17T21:45:35.344Z,46.58
2022-08-17T21:48:13.914Z,46.64
2022-08-17T21:50:49.472Z,46.88
2022-08-17T21:53:32.250Z,46.87
2022-08-17T21:56:04.146Z,47.02
2022-08-17T21:58:39.224Z,46.93
2022-08-17T22:01:20.426Z,47.27
2022-08-17T22:03:59.040Z,47.44
2022-08-17T22:06:34.604Z,47.30
2022-08-17T22:09:14.616Z,47.48
2022-08-17T22:11:54.910Z,47.58
2022-08-17T22:14:53.243Z,47.61
2022-08-17T22:17:21.930Z,47.63
2022-08-17T22:19:54.160Z,47.59
2022-08-17T22:22:33.234Z,47.61
2022-08-17T22:25:06.788Z,47.56
2022-08-17T22:27:56.670Z,47.76
2022-08-17T22:30:35.390Z,47.51
2022-08-17T22:33:40.012Z,47.58
2022-08-17T22:36:25.157Z,47.60
2022-08-17T22:38:57.867Z,47.28
2022-08-17T22:41:39.211Z,47.51
2022-08-17T22:44:17.707Z,47.64
2022-08-17T22:47:06.763Z,48.04
2022-08-17T22:49:53.513Z,48.23
2022-08-17T22:52:34.028Z,48.40
2022-08-17T22:55:30.488Z,48.38
2022-08-17T22:58:19.115Z,48.47
2022-08-17T23:00:51.077Z,49.09
2022-08-17T23:03:24.591Z,49.26
2022-08-17T23:06:08.078Z,49.32
2022-08-17T23:08:48.627Z,49.32
2022-08-17T23:11:19.855Z,49.33
2022-08-17T23:14:08.293Z,49.62
2022-08-17T23:16:40.973Z,49.81
2022-08-17T23:19:10.381Z,50.03
2022-08-17T23:21:41.535Z,50.29
2022-08-17T23:24:14.241Z,50.36
2022-08-17T23:26:47.596Z,50.21
2022-08-17T23:29:20.294Z,50.68
2022-08-17T23:31:55.585Z,50.72
2022-08-17T23:34:28.116Z,50.78
2022-08-17T23:36:57.771Z,51.05
2022-08-17T23:39:32.164Z,50.89
2022-08-17T23:42:08.093Z,51.07
2022-08-17T23:44:41.049Z,51.11
2022-08-17T23:47:12.722Z,51.52
2022-08-17T23:49:44.282Z,51.51
2022-08-17T23:52:18.040Z,51.71
2022-08-17T23:54:50.973Z,52.12
2022-08-17T23:57:33.234Z,52.42
